Terminal Aerodrome Forecast
Issued by NWS

Home | Current Version | Previous Version | Text Only | Print | Product List | Glossary On
Versions: 1 2 3 4 5 6 7 8 9 10 11 12 13 14 15 16 17 18 19 20 21 22 23 24 25 26 27
000
FTUS44 KHGX 040520
TAFLBX
TAF
KLBX 040520Z 0406/0506 12006KT P6SM SCT060
      TEMPO 0409/0412 00000KT 4SM BR SKC
     FM041500 15013KT P6SM SCT030
      TEMPO 0418/0422 16011G21KT BKN040
     FM050300 13007KT P6SM SCT250=

USA.gov is the U.S. government's official web portal to all federal, state and local government web resources and services.